sensor_id;sensor_type;location;lat;lon;timestamp;temperature;humidity
11838;DHT22;5978;51.020;6.764;2023-02-08T00:01:20;0.50;99.90
11838;DHT22;5978;51.020;6.764;2023-02-08T00:03:46;0.40;99.90
11838;DHT22;5978;51.020;6.764;2023-02-08T00:06:12;0.40;99.90
11838;DHT22;5978;51.020;6.764;2023-02-08T00:08:38;0.40;99.90
11838;DHT22;5978;51.020;6.764;2023-02-08T00:11:04;0.30;99.90
11838;DHT22;5978;51.020;6.764;2023-02-08T00:13:30;0.30;99.90
11838;DHT22;5978;51.020;6.764;2023-02-08T00:15:56;0.20;99.90
11838;DHT22;5978;51.020;6.764;2023-02-08T00:18:22;0.20;99.90
11838;DHT22;5978;51.020;6.764;2023-02-08T00:20:48;0.20;99.90
11838;DHT22;5978;51.020;6.764;2023-02-08T00:23:14;0.20;99.90
11838;DHT22;5978;51.020;6.764;2023-02-08T00:25:40;0.30;99.90
11838;DHT22;5978;51.020;6.764;2023-02-08T00:28:06;0.20;99.90
11838;DHT22;5978;51.020;6.764;2023-02-08T00:30:32;0.20;99.90
11838;DHT22;5978;51.020;6.764;2023-02-08T00:33:00;0.20;99.90
11838;DHT22;5978;51.020;6.764;2023-02-08T00:35:29;0.30;99.90
11838;DHT22;5978;51.020;6.764;2023-02-08T00:37:55;0.30;99.90
11838;DHT22;5978;51.020;6.764;2023-02-08T00:40:21;0.20;99.90
11838;DHT22;5978;51.020;6.764;2023-02-08T00:42:47;0.10;99.90
11838;DHT22;5978;51.020;6.764;2023-02-08T00:45:12;0.00;99.90
11838;DHT22;5978;51.020;6.764;2023-02-08T00:47:38;0.00;99.90
11838;DHT22;5978;51.020;6.764;2023-02-08T00:50:04;0.00;99.90
11838;DHT22;5978;51.020;6.764;2023-02-08T00:52:30;0.00;99.90
11838;DHT22;5978;51.020;6.764;2023-02-08T00:54:55;0.00;99.90
11838;DHT22;5978;51.020;6.764;2023-02-08T00:57:21;0.00;99.90
11838;DHT22;5978;51.020;6.764;2023-02-08T00:59:47;0.00;99.90
11838;DHT22;5978;51.020;6.764;2023-02-08T01:02:12;0.00;99.90
11838;DHT22;5978;51.020;6.764;2023-02-08T01:04:38;0.00;99.90
11838;DHT22;5978;51.020;6.764;2023-02-08T01:07:04;0.00;99.90
11838;DHT22;5978;51.020;6.764;2023-02-08T01:09:30;0.00;99.90
11838;DHT22;5978;51.020;6.764;2023-02-08T01:11:56;-0.10;99.90
11838;DHT22;5978;51.020;6.764;2023-02-08T01:14:21;-0.20;99.90
11838;DHT22;5978;51.020;6.764;2023-02-08T01:16:47;-0.20;99.90
11838;DHT22;5978;51.020;6.764;2023-02-08T01:19:13;-0.10;99.90
11838;DHT22;5978;51.020;6.764;2023-02-08T01:21:40;-0.10;99.90
11838;DHT22;5978;51.020;6.764;2023-02-08T01:24:06;-0.10;99.90
11838;DHT22;5978;51.020;6.764;2023-02-08T01:26:33;-0.10;99.90
11838;DHT22;5978;51.020;6.764;2023-02-08T01:28:59;-0.10;99.90
11838;DHT22;5978;51.020;6.764;2023-02-08T01:31:27;-0.10;99.90
11838;DHT22;5978;51.020;6.764;2023-02-08T01:33:56;-0.10;99.90
11838;DHT22;5978;51.020;6.764;2023-02-08T01:36:23;-0.10;99.90
11838;DHT22;5978;51.020;6.764;2023-02-08T01:38:49;-0.10;99.90
11838;DHT22;5978;51.020;6.764;2023-02-08T01:41:30;-0.10;99.90
11838;DHT22;5978;51.020;6.764;2023-02-08T01:46:35;-0.10;99.90
11838;DHT22;5978;51.020;6.764;2023-02-08T01:49:10;-0.20;99.90
11838;DHT22;5978;51.020;6.764;2023-02-08T01:51:40;-0.20;99.90
11838;DHT22;5978;51.020;6.764;2023-02-08T01:54:08;-0.30;99.90
11838;DHT22;5978;51.020;6.764;2023-02-08T01:56:38;-0.30;99.90
11838;DHT22;5978;51.020;6.764;2023-02-08T01:59:09;-0.30;99.90
11838;DHT22;5978;51.020;6.764;2023-02-08T02:01:37;-0.30;99.90
11838;DHT22;5978;51.020;6.764;2023-02-08T02:04:05;-0.30;99.90
11838;DHT22;5978;51.020;6.764;2023-02-08T02:06:36;-0.30;99.90
11838;DHT22;5978;51.020;6.764;2023-02-08T02:11:48;-0.30;99.90
11838;DHT22;5978;51.020;6.764;2023-02-08T02:14:14;-0.40;99.90
11838;DHT22;5978;51.020;6.764;2023-02-08T02:16:40;-0.40;99.90
11838;DHT22;5978;51.020;6.764;2023-02-08T02:19:11;-0.40;99.90
11838;DHT22;5978;51.020;6.764;2023-02-08T02:44:01;-0.60;99.90
11838;DHT22;5978;51.020;6.764;2023-02-08T02:46:39;-0.60;99.90
11838;DHT22;5978;51.020;6.764;2023-02-08T02:52:24;-0.50;99.90
11838;DHT22;5978;51.020;6.764;2023-02-08T02:55:03;-0.50;99.90
11838;DHT22;5978;51.020;6.764;2023-02-08T02:57:34;-0.60;99.90
11838;DHT22;5978;51.020;6.764;2023-02-08T03:00:05;-0.60;99.90
11838;DHT22;5978;51.020;6.764;2023-02-08T03:02:31;-0.70;99.90
11838;DHT22;5978;51.020;6.764;2023-02-08T03:04:57;-0.70;99.90
11838;DHT22;5978;51.020;6.764;2023-02-08T03:07:36;-0.60;99.90
11838;DHT22;5978;51.020;6.764;2023-02-08T03:15:33;-0.80;99.90
11838;DHT22;5978;51.020;6.764;2023-02-08T03:20:45;-0.70;99.90
11838;DHT22;5978;51.020;6.764;2023-02-08T03:23:18;-0.70;99.90
11838;DHT22;5978;51.020;6.764;2023-02-08T03:31:07;-0.70;99.90
11838;DHT22;5978;51.020;6.764;2023-02-08T03:33:41;-0.80;99.90
11838;DHT22;5978;51.020;6.764;2023-02-08T03:36:17;-0.80;99.90
11838;DHT22;5978;51.020;6.764;2023-02-08T03:38:45;-0.80;99.90
11838;DHT22;5978;51.020;6.764;2023-02-08T03:41:15;-0.70;99.90
11838;DHT22;5978;51.020;6.764;2023-02-08T03:43:45;-0.70;99.90
11838;DHT22;5978;51.020;6.764;2023-02-08T03:46:20;-0.70;99.90
11838;DHT22;5978;51.020;6.764;2023-02-08T03:48:54;-0.80;99.90
11838;DHT22;5978;51.020;6.764;2023-02-08T03:51:22;-0.80;99.90
11838;DHT22;5978;51.020;6.764;2023-02-08T03:53:50;-0.80;99.90
11838;DHT22;5978;51.020;6.764;2023-02-08T03:56:22;-0.80;99.90
11838;DHT22;5978;51.020;6.764;2023-02-08T03:58:59;-0.90;99.90
11838;DHT22;5978;51.020;6.764;2023-02-08T04:01:35;-0.90;99.90
11838;DHT22;5978;51.020;6.764;2023-02-08T04:04:03;-0.90;99.90
11838;DHT22;5978;51.020;6.764;2023-02-08T04:06:29;-0.90;99.90
11838;DHT22;5978;51.020;6.764;2023-02-08T04:08:54;-0.90;99.90
11838;DHT22;5978;51.020;6.764;2023-02-08T04:11:20;-0.90;99.90
11838;DHT22;5978;51.020;6.764;2023-02-08T04:13:46;-0.90;99.90
11838;DHT22;5978;51.020;6.764;2023-02-08T04:16:11;-0.90;99.90
11838;DHT22;5978;51.020;6.764;2023-02-08T04:18:37;-1.00;99.90
11838;DHT22;5978;51.020;6.764;2023-02-08T04:21:03;-1.00;99.90
11838;DHT22;5978;51.020;6.764;2023-02-08T04:23:31;-1.00;99.90
11838;DHT22;5978;51.020;6.764;2023-02-08T04:25:57;-1.00;99.90
11838;DHT22;5978;51.020;6.764;2023-02-08T04:28:22;-1.00;99.90
11838;DHT22;5978;51.020;6.764;2023-02-08T04:30:48;-1.00;99.90
11838;DHT22;5978;51.020;6.764;2023-02-08T04:33:14;-1.00;99.90
11838;DHT22;5978;51.020;6.764;2023-02-08T04:35:42;-1.00;99.90
11838;DHT22;5978;51.020;6.764;2023-02-08T04:38:08;-1.00;99.90
11838;DHT22;5978;51.020;6.764;2023-02-08T04:40:34;-1.10;99.90
11838;DHT22;5978;51.020;6.764;2023-02-08T04:43:00;-1.10;99.90
11838;DHT22;5978;51.020;6.764;2023-02-08T04:45:26;-1.10;99.90
11838;DHT22;5978;51.020;6.764;2023-02-08T04:47:54;-1.10;99.90
11838;DHT22;5978;51.020;6.764;2023-02-08T04:50:19;-1.10;99.90
11838;DHT22;5978;51.020;6.764;2023-02-08T04:52:45;-1.20;99.90
11838;DHT22;5978;51.020;6.764;2023-02-08T04:55:11;-1.10;99.90
11838;DHT22;5978;51.020;6.764;2023-02-08T04:57:37;-1.10;99.90
11838;DHT22;5978;51.020;6.764;2023-02-08T05:00:03;-1.10;99.90
11838;DHT22;5978;51.020;6.764;2023-02-08T05:02:28;-1.10;99.90
11838;DHT22;5978;51.020;6.764;2023-02-08T05:04:54;-1.10;99.90
11838;DHT22;5978;51.020;6.764;2023-02-08T05:07:20;-1.10;99.90
11838;DHT22;5978;51.020;6.764;2023-02-08T05:09:45;-1.20;99.90
11838;DHT22;5978;51.020;6.764;2023-02-08T05:12:12;-1.20;99.90
11838;DHT22;5978;51.020;6.764;2023-02-08T05:14:38;-1.20;99.90
11838;DHT22;5978;51.020;6.764;2023-02-08T05:17:03;-1.10;99.90
11838;DHT22;5978;51.020;6.764;2023-02-08T05:19:29;-1.20;99.90
11838;DHT22;5978;51.020;6.764;2023-02-08T05:21:55;-1.10;99.90
11838;DHT22;5978;51.020;6.764;2023-02-08T05:24:21;-1.20;99.90
11838;DHT22;5978;51.020;6.764;2023-02-08T05:26:46;-1.20;99.90
11838;DHT22;5978;51.020;6.764;2023-02-08T05:29:12;-1.20;99.90
11838;DHT22;5978;51.020;6.764;2023-02-08T05:31:38;-1.20;99.90
11838;DHT22;5978;51.020;6.764;2023-02-08T05:34:03;-1.20;99.90
11838;DHT22;5978;51.020;6.764;2023-02-08T05:36:29;-1.20;99.90
11838;DHT22;5978;51.020;6.764;2023-02-08T05:38:54;-1.20;99.90
11838;DHT22;5978;51.020;6.764;2023-02-08T05:41:20;-1.20;99.90
11838;DHT22;5978;51.020;6.764;2023-02-08T05:43:46;-1.30;99.90
11838;DHT22;5978;51.020;6.764;2023-02-08T05:46:11;-1.20;99.90
11838;DHT22;5978;51.020;6.764;2023-02-08T05:48:37;-1.20;99.90
11838;DHT22;5978;51.020;6.764;2023-02-08T05:51:03;-1.20;99.90
11838;DHT22;5978;51.020;6.764;2023-02-08T05:53:29;-1.20;99.90
11838;DHT22;5978;51.020;6.764;2023-02-08T05:55:56;-1.20;99.90
11838;DHT22;5978;51.020;6.764;2023-02-08T05:58:22;-1.20;99.90
11838;DHT22;5978;51.020;6.764;2023-02-08T06:00:48;-1.20;99.90
11838;DHT22;5978;51.020;6.764;2023-02-08T06:03:14;-1.20;99.90
11838;DHT22;5978;51.020;6.764;2023-02-08T06:05:40;-1.20;99.90
11838;DHT22;5978;51.020;6.764;2023-02-08T06:08:06;-1.20;99.90
11838;DHT22;5978;51.020;6.764;2023-02-08T06:10:32;-1.20;99.90
11838;DHT22;5978;51.020;6.764;2023-02-08T06:12:58;-1.30;99.90
11838;DHT22;5978;51.020;6.764;2023-02-08T06:15:24;-1.20;99.90
11838;DHT22;5978;51.020;6.764;2023-02-08T06:17:49;-1.20;99.90
11838;DHT22;5978;51.020;6.764;2023-02-08T06:20:15;-1.20;99.90
11838;DHT22;5978;51.020;6.764;2023-02-08T06:22:41;-1.20;99.90
11838;DHT22;5978;51.020;6.764;2023-02-08T06:25:07;-1.30;99.90
11838;DHT22;5978;51.020;6.764;2023-02-08T06:27:33;-1.30;99.90
11838;DHT22;5978;51.020;6.764;2023-02-08T06:29:59;-1.40;99.90
11838;DHT22;5978;51.020;6.764;2023-02-08T06:32:24;-1.40;99.90
11838;DHT22;5978;51.020;6.764;2023-02-08T06:34:50;-1.50;99.90
11838;DHT22;5978;51.020;6.764;2023-02-08T06:37:16;-1.50;99.90
11838;DHT22;5978;51.020;6.764;2023-02-08T06:39:42;-1.50;99.90
11838;DHT22;5978;51.020;6.764;2023-02-08T06:42:08;-1.50;99.90
11838;DHT22;5978;51.020;6.764;2023-02-08T06:44:33;-1.50;99.90
11838;DHT22;5978;51.020;6.764;2023-02-08T06:46:59;-1.50;99.90
11838;DHT22;5978;51.020;6.764;2023-02-08T06:49:25;-1.50;99.90
11838;DHT22;5978;51.020;6.764;2023-02-08T06:51:50;-1.50;99.90
11838;DHT22;5978;51.020;6.764;2023-02-08T06:54:16;-1.50;99.90
11838;DHT22;5978;51.020;6.764;2023-02-08T06:56:42;-1.60;99.90
11838;DHT22;5978;51.020;6.764;2023-02-08T06:59:07;-1.60;99.90
11838;DHT22;5978;51.020;6.764;2023-02-08T07:01:33;-1.50;99.90
11838;DHT22;5978;51.020;6.764;2023-02-08T07:03:59;-1.60;99.90
11838;DHT22;5978;51.020;6.764;2023-02-08T07:06:24;-1.50;99.90
11838;DHT22;5978;51.020;6.764;2023-02-08T07:08:50;-1.60;99.90
11838;DHT22;5978;51.020;6.764;2023-02-08T07:11:18;-1.50;99.90
11838;DHT22;5978;51.020;6.764;2023-02-08T07:13:46;-1.40;99.90
11838;DHT22;5978;51.020;6.764;2023-02-08T07:16:13;-1.50;99.90
11838;DHT22;5978;51.020;6.764;2023-02-08T07:18:38;-1.40;99.90
11838;DHT22;5978;51.020;6.764;2023-02-08T07:21:04;-1.50;99.90
11838;DHT22;5978;51.020;6.764;2023-02-08T07:23:30;-1.40;99.90
11838;DHT22;5978;51.020;6.764;2023-02-08T07:25:59;-1.40;99.90
11838;DHT22;5978;51.020;6.764;2023-02-08T07:28:26;-1.40;99.90
11838;DHT22;5978;51.020;6.764;2023-02-08T07:30:52;-1.40;99.90
11838;DHT22;5978;51.020;6.764;2023-02-08T07:33:17;-1.30;99.90
11838;DHT22;5978;51.020;6.764;2023-02-08T07:35:43;-1.30;99.90
11838;DHT22;5978;51.020;6.764;2023-02-08T07:38:09;-1.30;99.90
11838;DHT22;5978;51.020;6.764;2023-02-08T07:40:34;-1.20;99.90
11838;DHT22;5978;51.020;6.764;2023-02-08T07:43:00;-1.20;99.90
11838;DHT22;5978;51.020;6.764;2023-02-08T07:45:26;-1.10;99.90
11838;DHT22;5978;51.020;6.764;2023-02-08T07:47:51;-1.00;99.90
11838;DHT22;5978;51.020;6.764;2023-02-08T07:50:17;-1.00;99.90
11838;DHT22;5978;51.020;6.764;2023-02-08T07:52:43;-1.00;99.90
11838;DHT22;5978;51.020;6.764;2023-02-08T07:55:11;-0.90;99.90
11838;DHT22;5978;51.020;6.764;2023-02-08T07:57:45;-0.90;99.90
11838;DHT22;5978;51.020;6.764;2023-02-08T08:00:11;-0.80;99.90
11838;DHT22;5978;51.020;6.764;2023-02-08T08:02:37;-0.70;99.90
11838;DHT22;5978;51.020;6.764;2023-02-08T08:05:03;-0.70;99.90
11838;DHT22;5978;51.020;6.764;2023-02-08T08:07:29;-0.60;99.90
11838;DHT22;5978;51.020;6.764;2023-02-08T08:09:54;-0.50;99.90
11838;DHT22;5978;51.020;6.764;2023-02-08T08:12:20;-0.40;99.90
11838;DHT22;5978;51.020;6.764;2023-02-08T08:14:46;-0.30;99.90
11838;DHT22;5978;51.020;6.764;2023-02-08T08:17:12;-0.20;99.90
11838;DHT22;5978;51.020;6.764;2023-02-08T08:19:37;0.00;99.90
11838;DHT22;5978;51.020;6.764;2023-02-08T08:22:03;0.10;99.90
11838;DHT22;5978;51.020;6.764;2023-02-08T08:24:29;0.30;99.90
11838;DHT22;5978;51.020;6.764;2023-02-08T08:26:56;0.50;99.90
11838;DHT22;5978;51.020;6.764;2023-02-08T08:29:22;0.60;99.90
11838;DHT22;5978;51.020;6.764;2023-02-08T08:31:48;0.70;99.90
11838;DHT22;5978;51.020;6.764;2023-02-08T08:34:13;0.80;99.90
11838;DHT22;5978;51.020;6.764;2023-02-08T08:36:39;1.00;99.90
11838;DHT22;5978;51.020;6.764;2023-02-08T08:39:05;1.20;99.90
11838;DHT22;5978;51.020;6.764;2023-02-08T08:41:30;1.40;99.90
11838;DHT22;5978;51.020;6.764;2023-02-08T08:43:56;1.70;99.90
11838;DHT22;5978;51.020;6.764;2023-02-08T08:46:21;1.80;99.90
11838;DHT22;5978;51.020;6.764;2023-02-08T08:48:47;2.10;99.90
11838;DHT22;5978;51.020;6.764;2023-02-08T08:51:13;2.30;99.90
11838;DHT22;5978;51.020;6.764;2023-02-08T08:53:38;2.50;99.90
11838;DHT22;5978;51.020;6.764;2023-02-08T08:56:04;2.80;99.90
11838;DHT22;5978;51.020;6.764;2023-02-08T08:58:30;2.90;99.90
11838;DHT22;5978;51.020;6.764;2023-02-08T09:00:57;2.90;99.90
11838;DHT22;5978;51.020;6.764;2023-02-08T09:03:26;3.10;99.90
11838;DHT22;5978;51.020;6.764;2023-02-08T09:05:52;3.20;99.90
11838;DHT22;5978;51.020;6.764;2023-02-08T09:08:17;3.20;99.90
11838;DHT22;5978;51.020;6.764;2023-02-08T09:10:44;3.40;99.90
11838;DHT22;5978;51.020;6.764;2023-02-08T09:13:10;3.30;99.90
11838;DHT22;5978;51.020;6.764;2023-02-08T09:15:39;3.40;99.90
11838;DHT22;5978;51.020;6.764;2023-02-08T09:18:05;3.60;99.90
11838;DHT22;5978;51.020;6.764;2023-02-08T09:20:31;3.80;99.90
11838;DHT22;5978;51.020;6.764;2023-02-08T09:22:57;4.20;99.90
11838;DHT22;5978;51.020;6.764;2023-02-08T09:25:22;4.40;99.90
11838;DHT22;5978;51.020;6.764;2023-02-08T09:27:48;4.60;99.90
11838;DHT22;5978;51.020;6.764;2023-02-08T09:30:13;4.70;99.90
11838;DHT22;5978;51.020;6.764;2023-02-08T09:32:39;5.10;99.90
11838;DHT22;5978;51.020;6.764;2023-02-08T09:35:06;5.10;99.90
11838;DHT22;5978;51.020;6.764;2023-02-08T09:37:32;4.60;98.90
11838;DHT22;5978;51.020;6.764;2023-02-08T09:39:57;4.50;99.20
11838;DHT22;5978;51.020;6.764;2023-02-08T09:42:42;4.50;99.80
11838;DHT22;5978;51.020;6.764;2023-02-08T09:45:37;4.40;97.40
11838;DHT22;5978;51.020;6.764;2023-02-08T09:48:21;4.80;98.60
11838;DHT22;5978;51.020;6.764;2023-02-08T09:50:55;4.60;95.40
11838;DHT22;5978;51.020;6.764;2023-02-08T09:53:31;4.30;94.50
11838;DHT22;5978;51.020;6.764;2023-02-08T09:56:00;4.20;95.50
11838;DHT22;5978;51.020;6.764;2023-02-08T10:01:01;4.10;95.30
11838;DHT22;5978;51.020;6.764;2023-02-08T10:03:39;4.00;95.30
11838;DHT22;5978;51.020;6.764;2023-02-08T10:06:09;3.80;96.60
11838;DHT22;5978;51.020;6.764;2023-02-08T10:08:36;3.80;96.90
11838;DHT22;5978;51.020;6.764;2023-02-08T10:11:08;3.70;97.00
11838;DHT22;5978;51.020;6.764;2023-02-08T10:27:27;3.80;95.10
11838;DHT22;5978;51.020;6.764;2023-02-08T10:30:22;3.90;94.00
11838;DHT22;5978;51.020;6.764;2023-02-08T10:35:54;4.10;94.10
11838;DHT22;5978;51.020;6.764;2023-02-08T10:38:24;4.20;93.20
11838;DHT22;5978;51.020;6.764;2023-02-08T10:41:20;4.20;92.50
11838;DHT22;5978;51.020;6.764;2023-02-08T10:44:04;4.40;93.60
11838;DHT22;5978;51.020;6.764;2023-02-08T10:46:36;4.60;93.90
11838;DHT22;5978;51.020;6.764;2023-02-08T10:49:22;4.70;91.90
11838;DHT22;5978;51.020;6.764;2023-02-08T10:51:49;4.80;92.00
11838;DHT22;5978;51.020;6.764;2023-02-08T10:54:15;5.00;92.50
11838;DHT22;5978;51.020;6.764;2023-02-08T10:56:54;5.20;92.00
11838;DHT22;5978;51.020;6.764;2023-02-08T10:59:35;5.30;90.80
11838;DHT22;5978;51.020;6.764;2023-02-08T11:02:26;5.50;89.00
11838;DHT22;5978;51.020;6.764;2023-02-08T11:05:01;5.70;87.60
11838;DHT22;5978;51.020;6.764;2023-02-08T11:07:28;6.30;89.40
11838;DHT22;5978;51.020;6.764;2023-02-08T11:09:53;7.30;85.70
11838;DHT22;5978;51.020;6.764;2023-02-08T11:12:22;8.60;80.50
11838;DHT22;5978;51.020;6.764;2023-02-08T11:14:50;9.50;74.90
11838;DHT22;5978;51.020;6.764;2023-02-08T11:17:25;10.50;70.40
11838;DHT22;5978;51.020;6.764;2023-02-08T11:19:51;11.60;64.60
11838;DHT22;5978;51.020;6.764;2023-02-08T11:22:19;12.00;59.00
11838;DHT22;5978;51.020;6.764;2023-02-08T11:25:00;12.10;55.50
11838;DHT22;5978;51.020;6.764;2023-02-08T11:27:37;12.40;53.10
11838;DHT22;5978;51.020;6.764;2023-02-08T11:32:34;12.90;52.60
11838;DHT22;5978;51.020;6.764;2023-02-08T11:35:30;12.60;49.90
11838;DHT22;5978;51.020;6.764;2023-02-08T11:37:58;11.80;50.40
11838;DHT22;5978;51.020;6.764;2023-02-08T11:40:35;12.20;50.90
11838;DHT22;5978;51.020;6.764;2023-02-08T11:43:02;13.50;51.60
11838;DHT22;5978;51.020;6.764;2023-02-08T11:45:34;14.10;50.00
11838;DHT22;5978;51.020;6.764;2023-02-08T11:48:01;15.00;48.60
11838;DHT22;5978;51.020;6.764;2023-02-08T11:50:34;15.30;47.40
11838;DHT22;5978;51.020;6.764;2023-02-08T11:53:16;15.60;45.90
11838;DHT22;5978;51.020;6.764;2023-02-08T11:55:45;15.40;45.70
11838;DHT22;5978;51.020;6.764;2023-02-08T11:58:25;15.80;45.00
11838;DHT22;5978;51.020;6.764;2023-02-08T12:01:20;15.70;44.70
11838;DHT22;5978;51.020;6.764;2023-02-08T12:03:48;16.90;45.80
11838;DHT22;5978;51.020;6.764;2023-02-08T12:09:32;16.90;43.10
11838;DHT22;5978;51.020;6.764;2023-02-08T12:12:09;16.90;43.50
11838;DHT22;5978;51.020;6.764;2023-02-08T12:14:59;17.00;42.30
11838;DHT22;5978;51.020;6.764;2023-02-08T12:17:36;17.90;43.70
11838;DHT22;5978;51.020;6.764;2023-02-08T12:20:33;18.10;41.10
11838;DHT22;5978;51.020;6.764;2023-02-08T12:26:00;18.40;40.60
11838;DHT22;5978;51.020;6.764;2023-02-08T12:31:40;17.70;39.70
11838;DHT22;5978;51.020;6.764;2023-02-08T12:34:39;18.20;40.40
11838;DHT22;5978;51.020;6.764;2023-02-08T12:43:57;17.30;37.90
11838;DHT22;5978;51.020;6.764;2023-02-08T12:54:47;19.20;38.80
11838;DHT22;5978;51.020;6.764;2023-02-08T12:57:17;18.70;37.40
11838;DHT22;5978;51.020;6.764;2023-02-08T12:59:58;19.30;37.10
11838;DHT22;5978;51.020;6.764;2023-02-08T13:04:56;19.00;34.60
11838;DHT22;5978;51.020;6.764;2023-02-08T13:07:33;18.80;35.20
11838;DHT22;5978;51.020;6.764;2023-02-08T13:10:03;18.90;36.60
11838;DHT22;5978;51.020;6.764;2023-02-08T13:12:38;19.70;35.20
11838;DHT22;5978;51.020;6.764;2023-02-08T13:17:50;20.40;35.20
11838;DHT22;5978;51.020;6.764;2023-02-08T13:20:45;20.70;35.10
11838;DHT22;5978;51.020;6.764;2023-02-08T13:23:28;21.60;34.60
11838;DHT22;5978;51.020;6.764;2023-02-08T13:26:07;20.90;32.80
11838;DHT22;5978;51.020;6.764;2023-02-08T13:28:36;20.60;32.90
11838;DHT22;5978;51.020;6.764;2023-02-08T13:31:07;20.90;33.60
11838;DHT22;5978;51.020;6.764;2023-02-08T13:33:43;20.20;32.20
11838;DHT22;5978;51.020;6.764;2023-02-08T13:36:38;20.60;32.60
11838;DHT22;5978;51.020;6.764;2023-02-08T13:39:08;20.70;32.40
11838;DHT22;5978;51.020;6.764;2023-02-08T13:41:34;20.90;32.50
11838;DHT22;5978;51.020;6.764;2023-02-08T13:44:15;21.50;32.40
11838;DHT22;5978;51.020;6.764;2023-02-08T13:46:48;21.50;32.50
11838;DHT22;5978;51.020;6.764;2023-02-08T13:52:06;21.60;33.30
11838;DHT22;5978;51.020;6.764;2023-02-08T13:54:32;22.00;32.70
11838;DHT22;5978;51.020;6.764;2023-02-08T13:56:58;21.70;31.60
11838;DHT22;5978;51.020;6.764;2023-02-08T13:59:37;22.30;32.20
11838;DHT22;5978;51.020;6.764;2023-02-08T14:04:40;22.90;31.60
11838;DHT22;5978;51.020;6.764;2023-02-08T14:07:14;23.20;32.30
11838;DHT22;5978;51.020;6.764;2023-02-08T14:09:49;22.80;30.50
11838;DHT22;5978;51.020;6.764;2023-02-08T14:12:33;23.00;31.50
11838;DHT22;5978;51.020;6.764;2023-02-08T14:17:53;22.90;31.20
11838;DHT22;5978;51.020;6.764;2023-02-08T14:20:26;22.80;30.60
11838;DHT22;5978;51.020;6.764;2023-02-08T14:22:55;22.80;30.60
11838;DHT22;5978;51.020;6.764;2023-02-08T14:25:27;22.40;31.10
11838;DHT22;5978;51.020;6.764;2023-02-08T14:27:59;22.30;31.20
11838;DHT22;5978;51.020;6.764;2023-02-08T14:30:35;21.60;30.30
11838;DHT22;5978;51.020;6.764;2023-02-08T14:35:34;20.20;30.90
11838;DHT22;5978;51.020;6.764;2023-02-08T14:40:53;20.90;31.90
11838;DHT22;5978;51.020;6.764;2023-02-08T14:45:46;20.50;31.50
11838;DHT22;5978;51.020;6.764;2023-02-08T14:48:28;20.90;32.00
11838;DHT22;5978;51.020;6.764;2023-02-08T14:56:24;20.80;32.10
11838;DHT22;5978;51.020;6.764;2023-02-08T14:59:14;21.10;32.20
11838;DHT22;5978;51.020;6.764;2023-02-08T15:01:50;20.70;31.60
11838;DHT22;5978;51.020;6.764;2023-02-08T15:04:18;21.00;32.40
11838;DHT22;5978;51.020;6.764;2023-02-08T15:09:25;20.20;31.30
11838;DHT22;5978;51.020;6.764;2023-02-08T15:11:59;19.60;31.70
11838;DHT22;5978;51.020;6.764;2023-02-08T15:14:26;19.50;32.10
11838;DHT22;5978;51.020;6.764;2023-02-08T15:16:52;20.20;33.10
11838;DHT22;5978;51.020;6.764;2023-02-08T15:19:30;20.80;33.10
11838;DHT22;5978;51.020;6.764;2023-02-08T15:24:55;20.50;32.00
11838;DHT22;5978;51.020;6.764;2023-02-08T15:27:29;19.90;31.60
11838;DHT22;5978;51.020;6.764;2023-02-08T15:29:55;20.00;31.90
11838;DHT22;5978;51.020;6.764;2023-02-08T15:32:24;20.40;32.00
11838;DHT22;5978;51.020;6.764;2023-02-08T15:34:58;20.50;32.50
11838;DHT22;5978;51.020;6.764;2023-02-08T15:37:25;20.40;31.70
11838;DHT22;5978;51.020;6.764;2023-02-08T15:39:54;20.50;32.30
11838;DHT22;5978;51.020;6.764;2023-02-08T15:42:28;20.50;31.90
11838;DHT22;5978;51.020;6.764;2023-02-08T15:44:56;19.30;30.90
11838;DHT22;5978;51.020;6.764;2023-02-08T15:49:52;17.80;31.70
11838;DHT22;5978;51.020;6.764;2023-02-08T15:52:23;16.20;31.80
11838;DHT22;5978;51.020;6.764;2023-02-08T15:54:49;15.20;32.70
11838;DHT22;5978;51.020;6.764;2023-02-08T16:00:02;12.60;35.00
11838;DHT22;5978;51.020;6.764;2023-02-08T16:02:31;11.90;36.10
11838;DHT22;5978;51.020;6.764;2023-02-08T16:05:02;11.10;37.00
11838;DHT22;5978;51.020;6.764;2023-02-08T16:07:38;10.50;37.80
11838;DHT22;5978;51.020;6.764;2023-02-08T16:10:06;9.90;39.80
11838;DHT22;5978;51.020;6.764;2023-02-08T16:12:33;9.50;41.10
11838;DHT22;5978;51.020;6.764;2023-02-08T16:14:59;9.10;41.60
11838;DHT22;5978;51.020;6.764;2023-02-08T16:20:00;8.60;42.50
11838;DHT22;5978;51.020;6.764;2023-02-08T16:22:30;8.40;42.90
11838;DHT22;5978;51.020;6.764;2023-02-08T16:25:22;8.40;43.40
11838;DHT22;5978;51.020;6.764;2023-02-08T16:27:48;8.20;43.20
11838;DHT22;5978;51.020;6.764;2023-02-08T16:30:18;8.10;43.80
11838;DHT22;5978;51.020;6.764;2023-02-08T16:32:44;8.20;44.30
11838;DHT22;5978;51.020;6.764;2023-02-08T16:35:12;8.00;44.00
11838;DHT22;5978;51.020;6.764;2023-02-08T16:37:38;7.90;43.90
11838;DHT22;5978;51.020;6.764;2023-02-08T16:40:47;7.70;44.00
11838;DHT22;5978;51.020;6.764;2023-02-08T16:45:46;7.40;44.20
11838;DHT22;5978;51.020;6.764;2023-02-08T16:48:36;7.20;44.30
11838;DHT22;5978;51.020;6.764;2023-02-08T16:51:04;7.00;44.30
11838;DHT22;5978;51.020;6.764;2023-02-08T16:53:31;6.90;44.40
11838;DHT22;5978;51.020;6.764;2023-02-08T16:55:57;6.80;44.50
11838;DHT22;5978;51.020;6.764;2023-02-08T16:58:24;6.80;45.10
11838;DHT22;5978;51.020;6.764;2023-02-08T17:00:49;6.70;45.80
11838;DHT22;5978;51.020;6.764;2023-02-08T17:03:15;6.50;46.50
11838;DHT22;5978;51.020;6.764;2023-02-08T17:05:41;6.40;47.00
11838;DHT22;5978;51.020;6.764;2023-02-08T17:08:14;6.40;47.50
11838;DHT22;5978;51.020;6.764;2023-02-08T17:10:41;6.40;48.00
11838;DHT22;5978;51.020;6.764;2023-02-08T17:13:08;6.30;48.30
11838;DHT22;5978;51.020;6.764;2023-02-08T17:15:34;6.30;48.80
11838;DHT22;5978;51.020;6.764;2023-02-08T17:18:00;6.40;49.40
11838;DHT22;5978;51.020;6.764;2023-02-08T17:20:35;6.30;49.40
11838;DHT22;5978;51.020;6.764;2023-02-08T17:23:02;6.20;49.50
11838;DHT22;5978;51.020;6.764;2023-02-08T17:25:30;6.10;49.80
11838;DHT22;5978;51.020;6.764;2023-02-08T17:27:59;6.00;50.10
11838;DHT22;5978;51.020;6.764;2023-02-08T17:30:30;5.90;50.50
11838;DHT22;5978;51.020;6.764;2023-02-08T17:32:55;5.90;50.90
11838;DHT22;5978;51.020;6.764;2023-02-08T17:35:26;5.90;51.40
11838;DHT22;5978;51.020;6.764;2023-02-08T17:37:56;5.80;51.40
11838;DHT22;5978;51.020;6.764;2023-02-08T17:40:27;5.70;52.40
11838;DHT22;5978;51.020;6.764;2023-02-08T17:42:55;5.60;52.70
11838;DHT22;5978;51.020;6.764;2023-02-08T17:45:21;5.50;53.00
11838;DHT22;5978;51.020;6.764;2023-02-08T17:47:47;5.50;53.20
11838;DHT22;5978;51.020;6.764;2023-02-08T17:50:15;5.50;53.60
11838;DHT22;5978;51.020;6.764;2023-02-08T17:52:42;5.40;53.90
11838;DHT22;5978;51.020;6.764;2023-02-08T17:55:09;5.40;55.50
11838;DHT22;5978;51.020;6.764;2023-02-08T17:57:37;5.30;55.80
11838;DHT22;5978;51.020;6.764;2023-02-08T18:00:09;5.20;55.80
11838;DHT22;5978;51.020;6.764;2023-02-08T18:02:36;5.30;56.70
11838;DHT22;5978;51.020;6.764;2023-02-08T18:05:02;5.20;55.90
11838;DHT22;5978;51.020;6.764;2023-02-08T18:07:28;5.10;55.60
11838;DHT22;5978;51.020;6.764;2023-02-08T18:09:54;5.00;55.80
11838;DHT22;5978;51.020;6.764;2023-02-08T18:12:19;5.00;56.20
11838;DHT22;5978;51.020;6.764;2023-02-08T18:14:45;4.90;56.00
11838;DHT22;5978;51.020;6.764;2023-02-08T18:17:11;4.70;56.10
11838;DHT22;5978;51.020;6.764;2023-02-08T18:19:36;4.60;56.70